Aktualne dane pomiarowe

Uwaga, wersja testowa! Automatyczne pobieranie danych za pomocą narzędzi lub skryptów to umożliwiających jest zabronione.

Dane meteo z obszaru Polski uzyskane na podstawie depesz SYNOP pobieranych co godzinę z NWS. Najedź myszką na symbol przedstawiony w tabeli, aby uzyskać informacje co do jego znaczenia. Prosimy pamiętać, że to testowa wersja strony, która jeszcze nie jest ukończona. Stworzono również jest krótki FAQ dotyczący korzystania z tej podstrony Anomalie temperatury w chwili obecnej odniesione są do okresu referencyjnego 1951-2016. Okres ten będzie później zmieniony na 1981-2010. Kliknij ikonę aby pobrać plik CSV. Kliknij ikonę aby wygenerować mapę synoptyczną dla danego terminu.

Wybierz Datę:    

        

Kraków-Balice (12566)

Dane terminowe dla wybranej stacji. Kliknij datę, aby otrzymać dane z tego terminu dla wszystkich stacji.

TemperaturaZachmurzenieWiatrCiśnienieOpadyPogoda
 Data t td wb tx tn tg rh  Nt Nl Cl Cm Ch ws wd g1 g2 wx mslp ppp ch 24h 12h t ww ww w1 w2  
2019-10-03 23:00:00 7.0 6.4 6.5--- 9610.0wxwxwx3wx--31015.4 985.9 0.1---------
2019-10-03 22:00:00 7.1 6.4 6.6--- 9510.0wxwxwx2wx--21015.2 985.8 0.5---------
2019-10-03 21:00:00 6.7 6.1 6.2--- 9610.0wxwxwx3wx---1015.5 986.0 1.1---------
2019-10-03 20:00:00 6.8 6.4 6.5--- 9710.0wxwxwx4wx--41015.3 985.8 1.0---------
2019-10-03 19:00:00 6.9 5.8 6.1--- 9310.0wxwxwx3wx--31014.8 985.3 0.7---------
2019-10-03 18:00:00 7.6 5.4 6.2 12.0 7.4- 8630.0wxwxwx3wx--31014.3 984.9 0.5- 0.012------
2019-10-03 17:00:00 7.8 5.4 6.3--- 8540.0wxwxwx3wx---1014.1 984.8 0.7---------
2019-10-03 16:00:00 9.6 6.9 7.9--- 8340.0wxwxwxwx2wx---1013.7 984.6 0.5---------
2019-10-03 15:00:00 9.8 6.7 7.8--- 8140.0wxwxwxwx3wx--31013.5 984.4 0.5---------
2019-10-03 14:00:00 10.6 5.1 7.4--- 6940.0wxwxwx3wx--31013.1 984.1 0.2---------
2019-10-03 13:00:00 10.8 4.5 7.2--- 6540.0wxwxwx5wx--51013.1 984.1 -0.3---------
2019-10-03 12:00:00 11.9 4.8 7.9--- 6240.0wxwxwx4wx--41012.8 983.9 -0.4- 0.06------
2019-10-03 11:00:00 11.4 5.0 7.7--- 6540.0wxwxwxwx4wx--41012.8 983.9 -0.3---------
2019-10-03 10:00:00 10.2 5.8 7.5--- 7440.0wxwxwxwxwx5wx--51013.5 984.4 0.5---------
2019-10-03 09:00:00 9.1 6.2 7.3--- 8230.0wxwxwxwx4wx--41013.5 984.3 0.7---------
2019-10-03 08:00:00 8.7 6.3 7.1--- 8520.0wxwxwxwx4wx--41013.4 984.2 1.0---------
2019-10-03 07:00:00 8.4 6.5 7.1--- 8820.0wxwxwxwx5wx--51013.2 983.9 1.0---------
2019-10-03 06:00:00 7.9 6.8 7.1 13.4 7.7 7 9320.0wxwxwxwx3wx-831012.9 983.6 0.9 11.7 11.012wx-w1--
2019-10-03 05:00:00 7.8 6.7 7.0--- 9320.0wxwxwxwx3wx--31012.5 983.2 1.0---------
2019-10-03 04:00:00 8.0 6.8 7.2--- 9230.0wxwxwx3wx--31012.2 982.9 1.5---wx---
2019-10-03 03:00:00 8.0 6.9 7.2--- 9320.0wxwxwx4wx-841012.0 982.7 1.8---wx-w1w2--
2019-10-03 02:00:00 8.0 6.8 7.2--- 9215.0wxwxwx3wx--31011.4 982.2 1.6---wx-w1w2--
2019-10-03 01:00:00 8.3 6.6 7.2--- 8910.0wxwxwx4wx---1010.6 981.4 1.7---wx-w1w2--
2019-10-03 00:00:00 8.9 7.7 8.1--- 928.0wxwxwx1wx--11010.0 980.9 1.8- 10.06wx-w1w2--
2019-10-02 23:00:00 9.2 8.1 8.4--- 938.0wxwxwx3wx--31009.7 980.6 2.6---wx-w1w2--
2019-10-02 22:00:00 9.5 8.1 8.5--- 9110.0wxwxwx3wx--31008.7 979.7 2.9---wx-w1w2--
2019-10-02 21:00:00 10.3 9.2 9.5--- 9310.0wxwxwx4wx--41008.0 979.1 2.7---wx-w1w2--
2019-10-02 20:00:00 11.2 9.8 10.2--- 9110.0wxwxwx3wx--31006.8 978.0 1.7---wx-w1w2--
2019-10-02 19:00:00 13.1 12.0 12.3--- 9310.0wxwxwx4wx---1005.4 976.8 0.8---wx-w1w2--
2019-10-02 18:00:00 13.3 12.7 12.8 19.9 13.0- 9610.0wxwxwx2wx--21004.9 976.4 0.6- 0.712wx-w1--
2019-10-02 17:00:00 13.6 12.2 12.6--- 9125.0wxwxwx2wx---1004.8 976.3 1.1---wx-w1--
2019-10-02 16:00:00 14.3 11.8 12.6--- 8520.0wxwxwx3wx---1004.4 976.0 1.2---wx-w1--
2019-10-02 15:00:00 16.6 10.9 13.0--- 6940.0wxwxwx8wx---1004.0 975.8 0.9---------
2019-10-02 14:00:00 17.6 13.1 14.6--- 7540.0wxwxwx7wx--71003.3 975.2 0.4---------
2019-10-02 13:00:00 18.2 13.7 15.2--- 7540.0wxwxwx3wx--31002.8 974.8 0.0---------
2019-10-02 12:00:00 18.2 13.9 15.3--- 7640.0wxwxwx4wx-741002.9 974.9 0.1--6wx---
2019-10-02 11:00:00 19.5 13.7 15.7--- 6940.0wxwxwxwx5wx-751002.7 974.8 0.2---------
2019-10-02 10:00:00 17.9 13.6 15.0--- 7630.0wxwxwx0---01002.8 974.8 0.3---------
2019-10-02 09:00:00 16.8 13.5 14.6--- 8130.0wxwxwx1wx--11002.9 974.8 0.1---------
2019-10-02 08:00:00 16.4 12.6 13.9--- 7830.0wxwxwx0---01002.8 974.6 -0.4---------
2019-10-02 07:00:00 14.7 11.7 12.7--- 8235.0wx-wx2wx--21002.8 974.5 -0.7---------
2019-10-02 06:00:00 13.0 10.5 11.3 16.1 9.0 8 8540.0wx-wxwx2wx--21003.2 974.7 -0.6- 0.012------
2019-10-02 05:00:00 11.3 10.4 10.6--- 9440.0wx-wx1wx--11003.7 975.0 -0.7---------
2019-10-02 04:00:00 9.8 9.3 9.4--- 9740.0wx-wxwx2wx--21004.0 975.2 -0.4---------
2019-10-02 03:00:00 9.3 8.2 8.5--- 9340.0wx-wxwx2wx---1004.2 975.3 -0.7---------
2019-10-02 02:00:00 9.7 8.8 9.0--- 9440.0wx-wxwx1wx--11004.6 975.7 -0.5---------
2019-10-02 01:00:00 10.3 9.1 9.4--- 9240.0wx-wx1wx--11004.4 975.6 -0.6---------
2019-10-02 00:00:00 10.1 8.9 9.2--- 9240.0wx-wxwx1wx--11004.8 976.0 -0.6- 0.06------
1.1 ms

 

Print Friendly, PDF & Email